sensor_id;sensor_type;location;lat;lon;timestamp;P1;durP1;ratioP1;P2;durP2;ratioP2
50126;SDS011;36024;47.974;16.398;2022-07-23T00:00:11;10.25;;;9.25;;
50126;SDS011;36024;47.974;16.398;2022-07-23T00:02:38;10.35;;;9.27;;
50126;SDS011;36024;47.974;16.398;2022-07-23T00:05:05;10.70;;;9.55;;
50126;SDS011;36024;47.974;16.398;2022-07-23T00:07:32;10.10;;;9.32;;
50126;SDS011;36024;47.974;16.398;2022-07-23T00:09:59;10.05;;;9.25;;
50126;SDS011;36024;47.974;16.398;2022-07-23T00:12:25;10.80;;;9.80;;
50126;SDS011;36024;47.974;16.398;2022-07-23T00:14:52;11.25;;;10.15;;
50126;SDS011;36024;47.974;16.398;2022-07-23T00:17:19;10.45;;;9.57;;
50126;SDS011;36024;47.974;16.398;2022-07-23T00:19:46;10.30;;;9.40;;
50126;SDS011;36024;47.974;16.398;2022-07-23T00:22:13;10.38;;;9.50;;
50126;SDS011;36024;47.974;16.398;2022-07-23T00:24:39;10.27;;;9.32;;
50126;SDS011;36024;47.974;16.398;2022-07-23T00:27:06;10.57;;;9.70;;
50126;SDS011;36024;47.974;16.398;2022-07-23T00:29:33;10.20;;;9.27;;
50126;SDS011;36024;47.974;16.398;2022-07-23T00:31:59;10.60;;;9.80;;
50126;SDS011;36024;47.974;16.398;2022-07-23T00:34:26;10.63;;;9.73;;
50126;SDS011;36024;47.974;16.398;2022-07-23T00:36:53;11.02;;;10.02;;
50126;SDS011;36024;47.974;16.398;2022-07-23T00:39:20;11.88;;;10.82;;
50126;SDS011;36024;47.974;16.398;2022-07-23T00:41:50;11.20;;;10.07;;
50126;SDS011;36024;47.974;16.398;2022-07-23T00:44:18;10.95;;;9.95;;
50126;SDS011;36024;47.974;16.398;2022-07-23T00:46:48;11.63;;;10.57;;
50126;SDS011;36024;47.974;16.398;2022-07-23T00:49:19;10.88;;;9.98;;
50126;SDS011;36024;47.974;16.398;2022-07-23T00:51:47;12.07;;;10.98;;
50126;SDS011;36024;47.974;16.398;2022-07-23T00:54:15;11.48;;;10.38;;
50126;SDS011;36024;47.974;16.398;2022-07-23T00:56:43;11.02;;;10.13;;
50126;SDS011;36024;47.974;16.398;2022-07-23T00:59:11;11.43;;;10.63;;
50126;SDS011;36024;47.974;16.398;2022-07-23T01:01:37;11.02;;;9.95;;
50126;SDS011;36024;47.974;16.398;2022-07-23T01:04:04;12.18;;;10.85;;
50126;SDS011;36024;47.974;16.398;2022-07-23T01:06:34;11.75;;;10.52;;
50126;SDS011;36024;47.974;16.398;2022-07-23T01:09:03;12.77;;;11.50;;
50126;SDS011;36024;47.974;16.398;2022-07-23T01:11:35;13.05;;;11.30;;
50126;SDS011;36024;47.974;16.398;2022-07-23T01:14:11;12.57;;;11.43;;
50126;SDS011;36024;47.974;16.398;2022-07-23T01:16:40;11.95;;;10.95;;
50126;SDS011;36024;47.974;16.398;2022-07-23T01:19:07;12.10;;;10.77;;
50126;SDS011;36024;47.974;16.398;2022-07-23T01:21:47;12.30;;;11.40;;
50126;SDS011;36024;47.974;16.398;2022-07-23T01:24:14;12.60;;;11.35;;
50126;SDS011;36024;47.974;16.398;2022-07-23T01:26:54;12.38;;;11.38;;
50126;SDS011;36024;47.974;16.398;2022-07-23T01:29:21;12.43;;;11.32;;
50126;SDS011;36024;47.974;16.398;2022-07-23T01:31:48;11.60;;;10.70;;
50126;SDS011;36024;47.974;16.398;2022-07-23T01:34:15;12.65;;;11.43;;
50126;SDS011;36024;47.974;16.398;2022-07-23T01:36:42;12.40;;;11.40;;
50126;SDS011;36024;47.974;16.398;2022-07-23T01:39:10;12.18;;;11.18;;
50126;SDS011;36024;47.974;16.398;2022-07-23T01:41:36;12.48;;;11.40;;
50126;SDS011;36024;47.974;16.398;2022-07-23T01:44:03;11.95;;;10.82;;
50126;SDS011;36024;47.974;16.398;2022-07-23T01:46:30;11.73;;;10.80;;
50126;SDS011;36024;47.974;16.398;2022-07-23T01:48:57;12.02;;;10.93;;
50126;SDS011;36024;47.974;16.398;2022-07-23T01:52:00;11.70;;;10.50;;
50126;SDS011;36024;47.974;16.398;2022-07-23T01:54:33;11.55;;;10.60;;
50126;SDS011;36024;47.974;16.398;2022-07-23T01:57:02;12.05;;;11.00;;
50126;SDS011;36024;47.974;16.398;2022-07-23T01:59:28;11.50;;;10.60;;
50126;SDS011;36024;47.974;16.398;2022-07-23T02:01:55;11.68;;;10.68;;
50126;SDS011;36024;47.974;16.398;2022-07-23T02:04:23;12.68;;;11.13;;
50126;SDS011;36024;47.974;16.398;2022-07-23T02:06:50;11.70;;;10.50;;
50126;SDS011;36024;47.974;16.398;2022-07-23T02:09:18;11.30;;;10.40;;
50126;SDS011;36024;47.974;16.398;2022-07-23T02:11:46;11.68;;;10.80;;
50126;SDS011;36024;47.974;16.398;2022-07-23T02:14:12;11.70;;;10.70;;
50126;SDS011;36024;47.974;16.398;2022-07-23T02:16:39;10.90;;;10.00;;
50126;SDS011;36024;47.974;16.398;2022-07-23T02:19:06;11.63;;;10.63;;
50126;SDS011;36024;47.974;16.398;2022-07-23T02:21:32;11.77;;;10.77;;
50126;SDS011;36024;47.974;16.398;2022-07-23T02:23:59;11.20;;;10.18;;
50126;SDS011;36024;47.974;16.398;2022-07-23T02:26:27;11.60;;;10.57;;
50126;SDS011;36024;47.974;16.398;2022-07-23T02:28:53;12.02;;;11.02;;
50126;SDS011;36024;47.974;16.398;2022-07-23T02:31:20;12.10;;;11.05;;
50126;SDS011;36024;47.974;16.398;2022-07-23T02:33:47;11.82;;;10.82;;
50126;SDS011;36024;47.974;16.398;2022-07-23T02:36:15;12.40;;;11.20;;
50126;SDS011;36024;47.974;16.398;2022-07-23T02:38:42;11.77;;;10.82;;
50126;SDS011;36024;47.974;16.398;2022-07-23T02:41:09;12.10;;;11.02;;
50126;SDS011;36024;47.974;16.398;2022-07-23T02:43:36;12.23;;;11.20;;
50126;SDS011;36024;47.974;16.398;2022-07-23T02:46:03;11.85;;;10.65;;
50126;SDS011;36024;47.974;16.398;2022-07-23T02:48:30;11.82;;;10.77;;
50126;SDS011;36024;47.974;16.398;2022-07-23T02:50:58;12.10;;;11.02;;
50126;SDS011;36024;47.974;16.398;2022-07-23T02:53:30;12.25;;;11.10;;
50126;SDS011;36024;47.974;16.398;2022-07-23T02:55:57;11.93;;;10.82;;
50126;SDS011;36024;47.974;16.398;2022-07-23T02:58:23;13.25;;;11.52;;
50126;SDS011;36024;47.974;16.398;2022-07-23T03:00:53;12.25;;;11.18;;
50126;SDS011;36024;47.974;16.398;2022-07-23T03:03:19;12.35;;;11.25;;
50126;SDS011;36024;47.974;16.398;2022-07-23T03:05:46;12.77;;;11.20;;
50126;SDS011;36024;47.974;16.398;2022-07-23T03:08:13;13.02;;;11.73;;
50126;SDS011;36024;47.974;16.398;2022-07-23T03:10:43;12.43;;;11.43;;
50126;SDS011;36024;47.974;16.398;2022-07-23T03:13:10;12.10;;;11.00;;
50126;SDS011;36024;47.974;16.398;2022-07-23T03:15:36;12.88;;;11.68;;
50126;SDS011;36024;47.974;16.398;2022-07-23T03:18:03;12.13;;;11.13;;
50126;SDS011;36024;47.974;16.398;2022-07-23T03:20:30;12.23;;;11.20;;
50126;SDS011;36024;47.974;16.398;2022-07-23T03:22:56;13.00;;;11.77;;
50126;SDS011;36024;47.974;16.398;2022-07-23T03:25:23;12.55;;;11.55;;
50126;SDS011;36024;47.974;16.398;2022-07-23T03:27:50;12.38;;;11.38;;
50126;SDS011;36024;47.974;16.398;2022-07-23T03:30:17;13.00;;;11.80;;
50126;SDS011;36024;47.974;16.398;2022-07-23T03:32:44;11.88;;;10.98;;
50126;SDS011;36024;47.974;16.398;2022-07-23T03:35:11;12.57;;;11.57;;
50126;SDS011;36024;47.974;16.398;2022-07-23T03:37:45;12.55;;;11.48;;
50126;SDS011;36024;47.974;16.398;2022-07-23T03:40:12;13.00;;;11.80;;
50126;SDS011;36024;47.974;16.398;2022-07-23T03:42:39;12.32;;;11.35;;
50126;SDS011;36024;47.974;16.398;2022-07-23T03:45:08;13.10;;;11.95;;
50126;SDS011;36024;47.974;16.398;2022-07-23T03:47:35;13.23;;;12.15;;
50126;SDS011;36024;47.974;16.398;2022-07-23T03:50:02;13.52;;;12.32;;
50126;SDS011;36024;47.974;16.398;2022-07-23T03:52:31;14.95;;;13.18;;
50126;SDS011;36024;47.974;16.398;2022-07-23T03:54:57;12.70;;;11.60;;
50126;SDS011;36024;47.974;16.398;2022-07-23T03:57:24;13.52;;;12.30;;
50126;SDS011;36024;47.974;16.398;2022-07-23T03:59:51;12.68;;;11.50;;
50126;SDS011;36024;47.974;16.398;2022-07-23T04:02:18;13.18;;;11.98;;
50126;SDS011;36024;47.974;16.398;2022-07-23T04:04:45;13.25;;;12.10;;
50126;SDS011;36024;47.974;16.398;2022-07-23T04:07:13;12.70;;;11.68;;
50126;SDS011;36024;47.974;16.398;2022-07-23T04:09:40;12.50;;;11.45;;
50126;SDS011;36024;47.974;16.398;2022-07-23T04:12:11;12.55;;;11.27;;
50126;SDS011;36024;47.974;16.398;2022-07-23T04:14:39;13.13;;;11.93;;
50126;SDS011;36024;47.974;16.398;2022-07-23T04:17:05;12.32;;;11.23;;
50126;SDS011;36024;47.974;16.398;2022-07-23T04:19:32;13.05;;;11.73;;
50126;SDS011;36024;47.974;16.398;2022-07-23T04:22:03;13.52;;;12.20;;
50126;SDS011;36024;47.974;16.398;2022-07-23T04:24:32;12.35;;;11.35;;
50126;SDS011;36024;47.974;16.398;2022-07-23T04:26:59;12.73;;;11.73;;
50126;SDS011;36024;47.974;16.398;2022-07-23T04:29:26;12.55;;;11.55;;
50126;SDS011;36024;47.974;16.398;2022-07-23T04:31:52;12.63;;;11.38;;
50126;SDS011;36024;47.974;16.398;2022-07-23T04:34:20;13.55;;;12.15;;
50126;SDS011;36024;47.974;16.398;2022-07-23T04:36:47;13.80;;;11.63;;
50126;SDS011;36024;47.974;16.398;2022-07-23T04:39:14;12.88;;;11.32;;
50126;SDS011;36024;47.974;16.398;2022-07-23T04:41:41;14.38;;;12.98;;
50126;SDS011;36024;47.974;16.398;2022-07-23T04:44:08;15.23;;;13.82;;
50126;SDS011;36024;47.974;16.398;2022-07-23T04:46:35;13.95;;;12.73;;
50126;SDS011;36024;47.974;16.398;2022-07-23T04:49:01;12.70;;;11.60;;
50126;SDS011;36024;47.974;16.398;2022-07-23T04:51:29;14.70;;;13.50;;
50126;SDS011;36024;47.974;16.398;2022-07-23T04:53:56;14.13;;;12.93;;
50126;SDS011;36024;47.974;16.398;2022-07-23T04:56:23;12.55;;;11.35;;
50126;SDS011;36024;47.974;16.398;2022-07-23T04:58:49;12.52;;;11.32;;
50126;SDS011;36024;47.974;16.398;2022-07-23T05:01:16;12.80;;;11.50;;
50126;SDS011;36024;47.974;16.398;2022-07-23T05:03:44;13.00;;;11.80;;
50126;SDS011;36024;47.974;16.398;2022-07-23T05:06:11;12.70;;;11.65;;
50126;SDS011;36024;47.974;16.398;2022-07-23T05:08:37;13.18;;;11.98;;
50126;SDS011;36024;47.974;16.398;2022-07-23T05:11:04;13.07;;;11.75;;
50126;SDS011;36024;47.974;16.398;2022-07-23T05:13:31;12.93;;;11.93;;
50126;SDS011;36024;47.974;16.398;2022-07-23T05:15:58;13.25;;;12.15;;
50126;SDS011;36024;47.974;16.398;2022-07-23T05:18:25;13.07;;;11.88;;
50126;SDS011;36024;47.974;16.398;2022-07-23T05:20:52;12.57;;;11.63;;
50126;SDS011;36024;47.974;16.398;2022-07-23T05:23:21;13.05;;;11.80;;
50126;SDS011;36024;47.974;16.398;2022-07-23T05:25:48;13.50;;;12.25;;
50126;SDS011;36024;47.974;16.398;2022-07-23T05:28:16;12.68;;;11.60;;
50126;SDS011;36024;47.974;16.398;2022-07-23T05:30:48;13.10;;;11.77;;
50126;SDS011;36024;47.974;16.398;2022-07-23T05:33:18;12.30;;;11.27;;
50126;SDS011;36024;47.974;16.398;2022-07-23T05:35:45;12.93;;;11.20;;
50126;SDS011;36024;47.974;16.398;2022-07-23T05:38:25;11.55;;;10.75;;
50126;SDS011;36024;47.974;16.398;2022-07-23T05:40:53;12.57;;;11.57;;
50126;SDS011;36024;47.974;16.398;2022-07-23T05:43:20;13.13;;;11.65;;
50126;SDS011;36024;47.974;16.398;2022-07-23T05:45:47;11.65;;;10.75;;
50126;SDS011;36024;47.974;16.398;2022-07-23T05:48:14;12.02;;;10.90;;
50126;SDS011;36024;47.974;16.398;2022-07-23T05:50:51;12.40;;;11.40;;
50126;SDS011;36024;47.974;16.398;2022-07-23T05:53:27;11.68;;;10.45;;
50126;SDS011;36024;47.974;16.398;2022-07-23T05:56:23;11.10;;;10.10;;
50126;SDS011;36024;47.974;16.398;2022-07-23T05:58:50;12.30;;;11.35;;
50126;SDS011;36024;47.974;16.398;2022-07-23T06:01:18;11.32;;;10.25;;
50126;SDS011;36024;47.974;16.398;2022-07-23T06:04:05;11.57;;;10.52;;
50126;SDS011;36024;47.974;16.398;2022-07-23T06:06:36;11.70;;;10.50;;
50126;SDS011;36024;47.974;16.398;2022-07-23T06:09:02;12.13;;;10.93;;
50126;SDS011;36024;47.974;16.398;2022-07-23T06:11:30;11.43;;;10.32;;
50126;SDS011;36024;47.974;16.398;2022-07-23T06:13:57;11.57;;;10.40;;
50126;SDS011;36024;47.974;16.398;2022-07-23T06:16:34;11.38;;;10.43;;
50126;SDS011;36024;47.974;16.398;2022-07-23T06:19:01;11.50;;;10.38;;
50126;SDS011;36024;47.974;16.398;2022-07-23T06:21:29;11.02;;;10.23;;
50126;SDS011;36024;47.974;16.398;2022-07-23T06:24:14;12.10;;;10.25;;
50126;SDS011;36024;47.974;16.398;2022-07-23T06:26:41;10.88;;;10.02;;
50126;SDS011;36024;47.974;16.398;2022-07-23T06:29:08;12.32;;;11.32;;
50126;SDS011;36024;47.974;16.398;2022-07-23T06:31:35;11.05;;;10.20;;
50126;SDS011;36024;47.974;16.398;2022-07-23T06:34:02;11.05;;;10.05;;
50126;SDS011;36024;47.974;16.398;2022-07-23T06:36:29;11.05;;;10.18;;
50126;SDS011;36024;47.974;16.398;2022-07-23T06:38:56;10.95;;;10.00;;
50126;SDS011;36024;47.974;16.398;2022-07-23T06:41:23;10.93;;;10.02;;
50126;SDS011;36024;47.974;16.398;2022-07-23T06:43:50;10.73;;;9.93;;
50126;SDS011;36024;47.974;16.398;2022-07-23T06:46:16;11.20;;;10.10;;
50126;SDS011;36024;47.974;16.398;2022-07-23T06:48:43;10.20;;;9.27;;
50126;SDS011;36024;47.974;16.398;2022-07-23T06:51:10;9.43;;;8.63;;
50126;SDS011;36024;47.974;16.398;2022-07-23T06:53:36;10.20;;;9.27;;
50126;SDS011;36024;47.974;16.398;2022-07-23T06:56:03;8.85;;;7.97;;
50126;SDS011;36024;47.974;16.398;2022-07-23T06:58:31;7.63;;;7.00;;
50126;SDS011;36024;47.974;16.398;2022-07-23T07:00:58;7.57;;;6.25;;
50126;SDS011;36024;47.974;16.398;2022-07-23T07:03:25;6.45;;;5.95;;
50126;SDS011;36024;47.974;16.398;2022-07-23T07:05:51;7.00;;;6.30;;
50126;SDS011;36024;47.974;16.398;2022-07-23T07:08:19;6.53;;;5.93;;
50126;SDS011;36024;47.974;16.398;2022-07-23T07:10:46;6.45;;;5.90;;
50126;SDS011;36024;47.974;16.398;2022-07-23T07:13:12;6.80;;;6.20;;
50126;SDS011;36024;47.974;16.398;2022-07-23T07:15:39;5.70;;;5.30;;
50126;SDS011;36024;47.974;16.398;2022-07-23T07:18:06;9.55;;;5.25;;
50126;SDS011;36024;47.974;16.398;2022-07-23T07:20:32;7.05;;;5.80;;
50126;SDS011;36024;47.974;16.398;2022-07-23T07:22:59;6.22;;;5.60;;
50126;SDS011;36024;47.974;16.398;2022-07-23T07:25:25;5.10;;;4.70;;
50126;SDS011;36024;47.974;16.398;2022-07-23T07:27:52;4.82;;;4.35;;
50126;SDS011;36024;47.974;16.398;2022-07-23T07:30:19;5.10;;;4.70;;
50126;SDS011;36024;47.974;16.398;2022-07-23T07:32:45;6.45;;;4.88;;
50126;SDS011;36024;47.974;16.398;2022-07-23T07:35:22;5.10;;;4.70;;
50126;SDS011;36024;47.974;16.398;2022-07-23T07:37:50;6.22;;;4.47;;
50126;SDS011;36024;47.974;16.398;2022-07-23T07:40:17;6.45;;;4.45;;
50126;SDS011;36024;47.974;16.398;2022-07-23T07:42:45;6.10;;;4.25;;
50126;SDS011;36024;47.974;16.398;2022-07-23T07:45:12;4.03;;;3.70;;
50126;SDS011;36024;47.974;16.398;2022-07-23T07:47:39;4.40;;;3.97;;
50126;SDS011;36024;47.974;16.398;2022-07-23T07:50:05;6.35;;;4.05;;
50126;SDS011;36024;47.974;16.398;2022-07-23T07:52:34;4.32;;;3.92;;
50126;SDS011;36024;47.974;16.398;2022-07-23T07:55:03;4.93;;;4.43;;
50126;SDS011;36024;47.974;16.398;2022-07-23T07:57:31;4.95;;;4.45;;
50126;SDS011;36024;47.974;16.398;2022-07-23T07:59:58;5.18;;;4.13;;
50126;SDS011;36024;47.974;16.398;2022-07-23T08:02:47;4.50;;;4.13;;
50126;SDS011;36024;47.974;16.398;2022-07-23T08:05:25;4.93;;;4.43;;
50126;SDS011;36024;47.974;16.398;2022-07-23T08:07:54;5.63;;;4.20;;
50126;SDS011;36024;47.974;16.398;2022-07-23T08:10:25;4.80;;;4.50;;
50126;SDS011;36024;47.974;16.398;2022-07-23T08:12:53;4.78;;;4.40;;
50126;SDS011;36024;47.974;16.398;2022-07-23T08:15:23;5.05;;;4.50;;
50126;SDS011;36024;47.974;16.398;2022-07-23T08:17:52;5.00;;;4.60;;
50126;SDS011;36024;47.974;16.398;2022-07-23T08:20:19;6.10;;;4.57;;
50126;SDS011;36024;47.974;16.398;2022-07-23T08:22:54;5.10;;;4.70;;
50126;SDS011;36024;47.974;16.398;2022-07-23T08:25:26;5.80;;;5.18;;
50126;SDS011;36024;47.974;16.398;2022-07-23T08:27:54;5.07;;;4.72;;
50126;SDS011;36024;47.974;16.398;2022-07-23T08:30:22;5.65;;;5.15;;
50126;SDS011;36024;47.974;16.398;2022-07-23T08:35:30;5.93;;;5.32;;
50126;SDS011;36024;47.974;16.398;2022-07-23T08:38:02;5.65;;;5.15;;
50126;SDS011;36024;47.974;16.398;2022-07-23T08:40:32;5.15;;;4.72;;
50126;SDS011;36024;47.974;16.398;2022-07-23T08:43:04;5.30;;;4.90;;
50126;SDS011;36024;47.974;16.398;2022-07-23T08:45:35;5.18;;;4.70;;
50126;SDS011;36024;47.974;16.398;2022-07-23T08:48:03;4.93;;;4.63;;
50126;SDS011;36024;47.974;16.398;2022-07-23T08:50:32;5.53;;;5.13;;
50126;SDS011;36024;47.974;16.398;2022-07-23T08:52:59;4.82;;;4.43;;
50126;SDS011;36024;47.974;16.398;2022-07-23T08:55:26;5.70;;;4.95;;
50126;SDS011;36024;47.974;16.398;2022-07-23T08:57:53;5.22;;;4.70;;
50126;SDS011;36024;47.974;16.398;2022-07-23T09:00:20;6.00;;;5.00;;
50126;SDS011;36024;47.974;16.398;2022-07-23T09:02:48;5.50;;;5.10;;
50126;SDS011;36024;47.974;16.398;2022-07-23T09:05:15;5.20;;;4.80;;
50126;SDS011;36024;47.974;16.398;2022-07-23T09:10:36;5.07;;;4.68;;
50126;SDS011;36024;47.974;16.398;2022-07-23T09:16:11;5.15;;;4.75;;
50126;SDS011;36024;47.974;16.398;2022-07-23T09:18:42;5.28;;;4.97;;
50126;SDS011;36024;47.974;16.398;2022-07-23T09:21:11;5.13;;;4.82;;
50126;SDS011;36024;47.974;16.398;2022-07-23T09:23:41;5.32;;;4.85;;
50126;SDS011;36024;47.974;16.398;2022-07-23T09:26:17;5.35;;;4.95;;
50126;SDS011;36024;47.974;16.398;2022-07-23T09:28:53;5.20;;;4.80;;
50126;SDS011;36024;47.974;16.398;2022-07-23T09:31:21;5.63;;;5.22;;
50126;SDS011;36024;47.974;16.398;2022-07-23T09:33:49;5.18;;;4.78;;
50126;SDS011;36024;47.974;16.398;2022-07-23T09:36:18;5.88;;;5.32;;
50126;SDS011;36024;47.974;16.398;2022-07-23T09:38:53;5.32;;;4.85;;
50126;SDS011;36024;47.974;16.398;2022-07-23T09:41:20;5.85;;;5.30;;
50126;SDS011;36024;47.974;16.398;2022-07-23T09:43:47;5.43;;;5.00;;
50126;SDS011;36024;47.974;16.398;2022-07-23T09:46:23;5.88;;;5.30;;
50126;SDS011;36024;47.974;16.398;2022-07-23T09:48:52;5.40;;;5.00;;
50126;SDS011;36024;47.974;16.398;2022-07-23T09:51:20;5.25;;;4.85;;
50126;SDS011;36024;47.974;16.398;2022-07-23T09:54:02;5.22;;;4.85;;
50126;SDS011;36024;47.974;16.398;2022-07-23T09:56:29;5.32;;;5.03;;
50126;SDS011;36024;47.974;16.398;2022-07-23T09:58:57;5.25;;;4.90;;
50126;SDS011;36024;47.974;16.398;2022-07-23T10:01:50;5.53;;;5.13;;
50126;SDS011;36024;47.974;16.398;2022-07-23T10:04:19;5.38;;;5.03;;
50126;SDS011;36024;47.974;16.398;2022-07-23T10:07:06;5.57;;;5.18;;
50126;SDS011;36024;47.974;16.398;2022-07-23T10:09:57;6.22;;;5.72;;
50126;SDS011;36024;47.974;16.398;2022-07-23T10:12:45;5.35;;;5.05;;
50126;SDS011;36024;47.974;16.398;2022-07-23T10:15:14;5.55;;;5.13;;
50126;SDS011;36024;47.974;16.398;2022-07-23T10:17:41;5.20;;;4.80;;
50126;SDS011;36024;47.974;16.398;2022-07-23T10:20:08;5.35;;;4.95;;
50126;SDS011;36024;47.974;16.398;2022-07-23T10:22:37;5.35;;;5.05;;
50126;SDS011;36024;47.974;16.398;2022-07-23T10:30:25;5.60;;;5.20;;
50126;SDS011;36024;47.974;16.398;2022-07-23T10:33:15;4.80;;;4.50;;
50126;SDS011;36024;47.974;16.398;2022-07-23T10:35:55;4.80;;;4.40;;
50126;SDS011;36024;47.974;16.398;2022-07-23T10:38:25;4.80;;;4.43;;
50126;SDS011;36024;47.974;16.398;2022-07-23T10:40:58;4.97;;;4.60;;
50126;SDS011;36024;47.974;16.398;2022-07-23T10:43:29;4.95;;;4.55;;
50126;SDS011;36024;47.974;16.398;2022-07-23T10:57:08;4.95;;;4.55;;
50126;SDS011;36024;47.974;16.398;2022-07-23T11:02:28;5.82;;;5.28;;
50126;SDS011;36024;47.974;16.398;2022-07-23T11:04:59;5.38;;;4.95;;
50126;SDS011;36024;47.974;16.398;2022-07-23T11:07:27;5.85;;;5.40;;
50126;SDS011;36024;47.974;16.398;2022-07-23T11:09:54;5.68;;;5.28;;
50126;SDS011;36024;47.974;16.398;2022-07-23T11:22:40;6.40;;;5.85;;
50126;SDS011;36024;47.974;16.398;2022-07-23T11:25:28;7.18;;;6.18;;
50126;SDS011;36024;47.974;16.398;2022-07-23T11:28:08;7.55;;;6.47;;
50126;SDS011;36024;47.974;16.398;2022-07-23T11:30:40;6.50;;;6.00;;
50126;SDS011;36024;47.974;16.398;2022-07-23T11:35:37;6.93;;;6.22;;
50126;SDS011;36024;47.974;16.398;2022-07-23T11:38:16;6.50;;;6.00;;
50126;SDS011;36024;47.974;16.398;2022-07-23T11:40:45;6.63;;;6.05;;
50126;SDS011;36024;47.974;16.398;2022-07-23T11:43:13;6.93;;;5.82;;
50126;SDS011;36024;47.974;16.398;2022-07-23T11:45:41;6.55;;;5.95;;
50126;SDS011;36024;47.974;16.398;2022-07-23T11:48:16;6.22;;;5.82;;
50126;SDS011;36024;47.974;16.398;2022-07-23T11:50:44;7.25;;;6.60;;
50126;SDS011;36024;47.974;16.398;2022-07-23T11:53:11;7.30;;;6.60;;
50126;SDS011;36024;47.974;16.398;2022-07-23T11:55:38;7.00;;;6.50;;
50126;SDS011;36024;47.974;16.398;2022-07-23T11:58:04;7.00;;;6.40;;
50126;SDS011;36024;47.974;16.398;2022-07-23T12:00:31;6.85;;;6.22;;
50126;SDS011;36024;47.974;16.398;2022-07-23T12:03:06;6.78;;;6.35;;
50126;SDS011;36024;47.974;16.398;2022-07-23T12:05:34;7.18;;;6.57;;
50126;SDS011;36024;47.974;16.398;2022-07-23T12:08:03;7.05;;;6.55;;
50126;SDS011;36024;47.974;16.398;2022-07-23T12:10:38;7.25;;;6.70;;
50126;SDS011;36024;47.974;16.398;2022-07-23T12:13:09;7.68;;;7.03;;
50126;SDS011;36024;47.974;16.398;2022-07-23T12:15:39;7.40;;;6.90;;
50126;SDS011;36024;47.974;16.398;2022-07-23T12:18:08;7.25;;;6.65;;
50126;SDS011;36024;47.974;16.398;2022-07-23T12:20:40;8.02;;;7.22;;
50126;SDS011;36024;47.974;16.398;2022-07-23T12:23:12;7.97;;;7.38;;
50126;SDS011;36024;47.974;16.398;2022-07-23T12:25:46;7.75;;;7.25;;
50126;SDS011;36024;47.974;16.398;2022-07-23T12:28:16;8.50;;;7.28;;
50126;SDS011;36024;47.974;16.398;2022-07-23T12:33:12;7.72;;;7.05;;
50126;SDS011;36024;47.974;16.398;2022-07-23T12:35:42;7.65;;;6.95;;
50126;SDS011;36024;47.974;16.398;2022-07-23T12:38:16;8.02;;;7.10;;
50126;SDS011;36024;47.974;16.398;2022-07-23T12:40:48;11.82;;;8.02;;
50126;SDS011;36024;47.974;16.398;2022-07-23T12:43:21;11.13;;;7.28;;
50126;SDS011;36024;47.974;16.398;2022-07-23T12:45:49;8.32;;;7.30;;
50126;SDS011;36024;47.974;16.398;2022-07-23T12:48:26;7.68;;;6.97;;
50126;SDS011;36024;47.974;16.398;2022-07-23T12:51:14;7.80;;;6.57;;
50126;SDS011;36024;47.974;16.398;2022-07-23T12:53:48;7.18;;;6.47;;
50126;SDS011;36024;47.974;16.398;2022-07-23T12:56:18;7.40;;;6.70;;
50126;SDS011;36024;47.974;16.398;2022-07-23T12:58:51;7.85;;;7.13;;
50126;SDS011;36024;47.974;16.398;2022-07-23T13:01:28;7.50;;;6.35;;
50126;SDS011;36024;47.974;16.398;2022-07-23T13:04:01;7.38;;;6.78;;
50126;SDS011;36024;47.974;16.398;2022-07-23T13:06:42;7.90;;;7.10;;
50126;SDS011;36024;47.974;16.398;2022-07-23T13:09:17;8.25;;;6.60;;
50126;SDS011;36024;47.974;16.398;2022-07-23T13:11:46;6.80;;;6.30;;
50126;SDS011;36024;47.974;16.398;2022-07-23T13:14:13;6.55;;;6.00;;
50126;SDS011;36024;47.974;16.398;2022-07-23T13:16:42;6.60;;;5.97;;
50126;SDS011;36024;47.974;16.398;2022-07-23T13:19:10;6.25;;;5.72;;
50126;SDS011;36024;47.974;16.398;2022-07-23T13:21:38;6.60;;;6.03;;
50126;SDS011;36024;47.974;16.398;2022-07-23T13:24:05;5.65;;;5.25;;
50126;SDS011;36024;47.974;16.398;2022-07-23T13:26:35;6.25;;;5.72;;
50126;SDS011;36024;47.974;16.398;2022-07-23T13:29:03;6.13;;;5.63;;
50126;SDS011;36024;47.974;16.398;2022-07-23T13:31:35;6.13;;;4.93;;
50126;SDS011;36024;47.974;16.398;2022-07-23T13:34:04;5.05;;;4.75;;
50126;SDS011;36024;47.974;16.398;2022-07-23T13:36:31;4.90;;;4.55;;
50126;SDS011;36024;47.974;16.398;2022-07-23T13:38:57;4.97;;;4.68;;
50126;SDS011;36024;47.974;16.398;2022-07-23T13:41:25;4.20;;;3.90;;
50126;SDS011;36024;47.974;16.398;2022-07-23T13:43:51;4.68;;;4.38;;
50126;SDS011;36024;47.974;16.398;2022-07-23T13:46:18;4.50;;;4.20;;
50126;SDS011;36024;47.974;16.398;2022-07-23T13:48:46;4.40;;;4.10;;
50126;SDS011;36024;47.974;16.398;2022-07-23T13:51:13;4.07;;;3.78;;
50126;SDS011;36024;47.974;16.398;2022-07-23T13:53:40;4.05;;;3.75;;
50126;SDS011;36024;47.974;16.398;2022-07-23T13:56:06;4.30;;;3.90;;
50126;SDS011;36024;47.974;16.398;2022-07-23T13:58:33;3.45;;;3.25;;
50126;SDS011;36024;47.974;16.398;2022-07-23T14:00:59;4.10;;;3.80;;
50126;SDS011;36024;47.974;16.398;2022-07-23T14:03:26;3.63;;;3.33;;
50126;SDS011;36024;47.974;16.398;2022-07-23T14:05:53;3.28;;;3.08;;
50126;SDS011;36024;47.974;16.398;2022-07-23T14:08:22;3.55;;;3.25;;
50126;SDS011;36024;47.974;16.398;2022-07-23T14:10:49;3.22;;;3.00;;
50126;SDS011;36024;47.974;16.398;2022-07-23T14:13:16;3.25;;;2.70;;
50126;SDS011;36024;47.974;16.398;2022-07-23T14:15:47;3.17;;;2.88;;
50126;SDS011;36024;47.974;16.398;2022-07-23T14:18:15;2.80;;;2.60;;
50126;SDS011;36024;47.974;16.398;2022-07-23T14:20:42;3.13;;;2.92;;
50126;SDS011;36024;47.974;16.398;2022-07-23T14:23:09;3.10;;;2.80;;
50126;SDS011;36024;47.974;16.398;2022-07-23T14:25:38;2.70;;;2.50;;
50126;SDS011;36024;47.974;16.398;2022-07-23T14:28:05;3.13;;;2.92;;
50126;SDS011;36024;47.974;16.398;2022-07-23T14:30:31;3.00;;;2.80;;
50126;SDS011;36024;47.974;16.398;2022-07-23T14:33:00;3.17;;;2.97;;
50126;SDS011;36024;47.974;16.398;2022-07-23T14:35:27;3.40;;;3.20;;
50126;SDS011;36024;47.974;16.398;2022-07-23T14:37:53;3.38;;;3.10;;
50126;SDS011;36024;47.974;16.398;2022-07-23T14:40:21;3.55;;;3.20;;
50126;SDS011;36024;47.974;16.398;2022-07-23T14:42:49;3.80;;;3.50;;
50126;SDS011;36024;47.974;16.398;2022-07-23T14:45:15;3.78;;;3.42;;
50126;SDS011;36024;47.974;16.398;2022-07-23T14:47:44;3.75;;;3.53;;
50126;SDS011;36024;47.974;16.398;2022-07-23T14:50:13;5.75;;;3.67;;
50126;SDS011;36024;47.974;16.398;2022-07-23T14:52:40;3.90;;;3.60;;
50126;SDS011;36024;47.974;16.398;2022-07-23T14:55:07;4.13;;;3.70;;
50126;SDS011;36024;47.974;16.398;2022-07-23T14:57:33;4.18;;;3.78;;
50126;SDS011;36024;47.974;16.398;2022-07-23T15:00:00;4.60;;;4.20;;
50126;SDS011;36024;47.974;16.398;2022-07-23T15:02:28;4.88;;;4.40;;
50126;SDS011;36024;47.974;16.398;2022-07-23T15:04:54;4.38;;;3.65;;
50126;SDS011;36024;47.974;16.398;2022-07-23T15:07:24;4.28;;;3.83;;
50126;SDS011;36024;47.974;16.398;2022-07-23T15:09:52;3.97;;;3.60;;
50126;SDS011;36024;47.974;16.398;2022-07-23T15:12:19;4.80;;;4.40;;
50126;SDS011;36024;47.974;16.398;2022-07-23T15:14:48;4.47;;;4.07;;
50126;SDS011;36024;47.974;16.398;2022-07-23T15:17:15;4.65;;;4.35;;